Time;durP1;ratioP1;P1;durP2;ratioP2;P2;SDS_P1;SDS_P2;PMS_P1;PMS_P2;Temp;Humidity;BMP_temperature;BMP_pressure;BME280_temperature;BME280_humidity;BME280_pressure;Samples;Min_cycle;Max_cycle;Signal;HPM_P1;HPM_P2
2023/09/07 00:01:30;;;;;;;2.70;1.40;;;;;;;17.97;100.00;98959.13;15277693;19;20018;-77
2023/09/07 00:06:55;;;;;;;1.77;1.30;;;;;;;17.88;100.00;98954.81;15278300;19;20021;-77
2023/09/07 00:12:23;;;;;;;1.50;1.30;;;;;;;17.65;100.00;98961.28;15289741;19;20014;-76
2023/09/07 00:17:47;;;;;;;1.67;1.30;;;;;;;17.49;100.00;98956.94;15298767;19;20014;-77
2023/09/07 00:23:19;;;;;;;1.42;1.33;;;;;;;17.42;100.00;98961.50;15289683;19;20022;-78
2023/09/07 00:28:47;;;;;;;1.40;1.30;;;;;;;17.38;100.00;98962.91;15288847;19;20078;-75
2023/09/07 00:34:13;;;;;;;2.60;1.30;;;;;;;17.34;100.00;98961.63;15278593;19;20090;-76
2023/09/07 00:39:37;;;;;;;1.67;1.25;;;;;;;17.29;100.00;98962.16;15288910;19;20011;-76
2023/09/07 00:45:06;;;;;;;1.67;1.35;;;;;;;17.22;100.00;98967.56;15278298;19;20011;-77
2023/09/07 00:50:32;;;;;;;1.67;1.38;;;;;;;17.14;100.00;98959.47;15291550;19;20391;-77
2023/09/07 00:55:57;;;;;;;3.28;1.45;;;;;;;17.07;100.00;98964.00;15288793;19;20018;-77
2023/09/07 01:01:25;;;;;;;2.67;1.40;;;;;;;16.99;100.00;98967.69;15287894;19;20799;-77
2023/09/07 01:06:56;;;;;;;2.00;1.40;;;;;;;16.87;100.00;98959.13;15275449;19;20010;-76
2023/09/07 01:12:20;;;;;;;1.50;1.40;;;;;;;16.76;100.00;98959.56;15282044;19;20010;-76
2023/09/07 01:17:49;;;;;;;1.63;1.38;;;;;;;16.64;100.00;98960.03;15294094;19;20090;-82
2023/09/07 01:23:38;;;;;;;1.92;1.40;;;;;;;16.54;100.00;98954.03;15288287;19;20011;-78
2023/09/07 01:29:03;;;;;;;1.67;1.55;;;;;;;16.46;100.00;98956.88;15296551;19;20347;-79
2023/09/07 01:34:28;;;;;;;2.30;1.50;;;;;;;16.38;100.00;98951.50;15319188;19;20011;-78
2023/09/07 01:39:59;;;;;;;1.98;1.33;;;;;;;16.35;100.00;98949.16;15346006;19;20020;-79
2023/09/07 01:45:24;;;;;;;3.58;1.58;;;;;;;16.28;100.00;98958.06;15295825;19;20635;-79
2023/09/07 01:50:50;;;;;;;2.47;1.50;;;;;;;16.19;100.00;98961.88;15299701;19;20035;-79
2023/09/07 01:56:18;;;;;;;1.60;1.50;;;;;;;16.05;100.00;98965.44;15289394;19;20086;-79
2023/09/07 02:01:42;;;;;;;2.83;1.73;;;;;;;15.95;100.00;98961.06;15295950;19;20039;-78
2023/09/07 02:07:07;;;;;;;2.47;1.60;;;;;;;15.85;100.00;98966.78;15291550;19;20070;-78
2023/09/07 02:12:35;;;;;;;3.30;1.83;;;;;;;15.74;100.00;98963.59;15295152;19;20022;-79
2023/09/07 02:18:00;;;;;;;1.85;1.67;;;;;;;15.62;100.00;98961.31;15288088;19;20015;-76
2023/09/07 02:23:31;;;;;;;2.63;1.80;;;;;;;15.53;100.00;98970.53;15280950;19;20035;-77
2023/09/07 02:28:58;;;;;;;3.58;1.70;;;;;;;15.45;100.00;98976.84;15277642;19;20020;-76
2023/09/07 02:34:23;;;;;;;2.10;1.63;;;;;;;15.38;100.00;98979.44;15273406;19;20018;-76
2023/09/07 02:39:48;;;;;;;2.05;1.50;;;;;;;15.30;100.00;98974.06;15273667;19;20006;-76
2023/09/07 02:45:16;;;;;;;2.83;1.70;;;;;;;15.23;100.00;98971.22;15277491;19;20018;-75
2023/09/07 02:50:41;;;;;;;2.20;1.60;;;;;;;15.17;100.00;98968.38;15277223;19;20028;-79
2023/09/07 02:56:07;;;;;;;2.25;1.77;;;;;;;15.08;100.00;98976.56;15294860;19;20054;-80
2023/09/07 03:01:40;;;;;;;2.22;1.90;;;;;;;15.01;100.00;98972.00;15297073;19;20413;-83
2023/09/07 03:07:10;;;;;;;1.95;1.77;;;;;;;14.91;100.00;98970.34;15349515;19;20056;-80
2023/09/07 03:12:37;;;;;;;3.15;1.70;;;;;;;14.84;100.00;98965.81;15286650;19;20026;-82
2023/09/07 03:18:02;;;;;;;2.72;1.90;;;;;;;14.73;100.00;98962.47;15288513;19;20423;-81
2023/09/07 03:23:44;;;;;;;2.40;1.90;;;;;;;14.69;100.00;98971.13;15289680;19;20474;-82
2023/09/07 03:29:09;;;;;;;2.33;2.07;;;;;;;14.62;100.00;98970.94;15293186;19;20014;-82
2023/09/07 03:34:36;;;;;;;2.10;1.90;;;;;;;14.59;100.00;98971.28;15284577;19;20015;-82
2023/09/07 03:40:05;;;;;;;2.15;1.73;;;;;;;14.53;100.00;98978.25;15299337;19;20010;-82
2023/09/07 03:45:30;;;;;;;3.08;1.85;;;;;;;14.40;100.00;98978.78;15290452;19;20027;-83
2023/09/07 03:50:58;;;;;;;2.65;1.83;;;;;;;14.31;100.00;98977.09;15304091;19;20034;-82
2023/09/07 03:56:26;;;;;;;2.13;1.65;;;;;;;14.22;100.00;98978.13;15293253;19;20015;-82
2023/09/07 04:01:54;;;;;;;2.17;1.80;;;;;;;14.13;100.00;98977.28;15303114;19;20021;-83
2023/09/07 04:07:20;;;;;;;2.75;1.83;;;;;;;14.04;100.00;98976.47;15297203;19;20022;-83
2023/09/07 04:12:47;;;;;;;3.30;2.13;;;;;;;13.96;100.00;98977.31;15294452;19;20331;-81
2023/09/07 04:18:16;;;;;;;3.70;2.10;;;;;;;13.88;100.00;98980.00;15291200;19;20421;-81
2023/09/07 04:23:50;;;;;;;3.42;1.88;;;;;;;13.81;100.00;98987.09;15306017;19;20014;-83
2023/09/07 04:29:19;;;;;;;2.58;1.83;;;;;;;13.73;100.00;98985.22;15307824;19;20031;-82
2023/09/07 04:34:45;;;;;;;3.40;2.38;;;;;;;13.66;100.00;98997.75;15302883;19;20014;-85
2023/09/07 04:40:11;;;;;;;2.42;2.22;;;;;;;13.61;100.00;99003.69;15303281;19;20022;-83
2023/09/07 04:45:39;;;;;;;3.15;2.20;;;;;;;13.55;100.00;99010.59;15303774;19;20031;-82
2023/09/07 04:51:06;;;;;;;4.95;2.25;;;;;;;13.52;100.00;99019.06;15303458;19;20016;-82
2023/09/07 04:56:32;;;;;;;3.22;1.83;;;;;;;13.54;100.00;99022.44;15296549;19;20026;-88
2023/09/07 05:02:02;;;;;;;3.10;1.80;;;;;;;13.71;100.00;99014.34;15298965;19;20081;-86
2023/09/07 05:07:27;;;;;;;2.03;1.50;;;;;;;13.78;100.00;99006.41;15306625;19;20038;-87
2023/09/07 05:12:53;;;;;;;2.53;2.00;;;;;;;13.79;100.00;99014.38;15308025;19;20020;-82
2023/09/07 05:18:20;;;;;;;4.30;1.80;;;;;;;13.87;100.00;99002.69;15307251;19;20031;-84
2023/09/07 05:23:52;;;;;;;3.05;1.90;;;;;;;13.96;100.00;99014.38;15300843;19;20029;-81
2023/09/07 05:29:17;;;;;;;3.35;2.10;;;;;;;13.97;100.00;99024.19;15315411;19;20025;-85
2023/09/07 05:34:44;;;;;;;2.65;1.70;;;;;;;14.01;100.00;99028.25;15306077;19;20025;-82
2023/09/07 05:40:11;;;;;;;5.72;2.40;;;;;;;14.03;100.00;99026.25;15310609;19;20058;-88
2023/09/07 05:45:36;;;;;;;2.47;2.05;;;;;;;14.15;100.00;99034.88;15306314;19;20019;-82
2023/09/07 05:51:03;;;;;;;3.47;1.90;;;;;;;14.26;100.00;99041.81;15299271;19;20043;-83
2023/09/07 05:56:30;;;;;;;2.70;1.90;;;;;;;14.32;100.00;99046.53;15290521;19;20386;-87
2023/09/07 06:01:58;;;;;;;3.85;1.95;;;;;;;14.45;100.00;99041.47;15296650;19;20014;-81
2023/09/07 06:07:21;;;;;;;3.03;2.05;;;;;;;14.56;100.00;99044.81;15286648;19;20046;-81
2023/09/07 06:12:46;;;;;;;3.80;1.95;;;;;;;14.66;100.00;99041.94;15290774;19;20070;-81
2023/09/07 06:18:11;;;;;;;6.00;2.33;;;;;;;14.74;100.00;99039.22;15300809;19;20023;-85
2023/09/07 06:23:45;;;;;;;4.65;2.00;;;;;;;14.95;100.00;99038.69;15296153;19;20018;-82
2023/09/07 06:29:10;;;;;;;4.75;2.05;;;;;;;15.12;100.00;99041.31;15298805;19;20020;-84
2023/09/07 06:34:37;;;;;;;1.98;1.88;;;;;;;15.22;100.00;99042.81;15297355;19;20018;-85
2023/09/07 06:40:06;;;;;;;4.22;2.20;;;;;;;15.28;100.00;99043.97;15300332;19;20026;-88
2023/09/07 06:45:50;;;;;;;2.78;1.90;;;;;;;15.46;100.00;99048.31;15303689;19;20027;-88
2023/09/07 06:51:17;;;;;;;3.95;1.90;;;;;;;15.61;100.00;99045.69;15360489;19;20026;-89
2023/09/07 06:56:48;;;;;;;4.25;2.05;;;;;;;15.72;100.00;99043.41;15306362;19;20054;-88
2023/09/07 07:02:13;;;;;;;5.30;2.17;;;;;;;15.88;100.00;99047.06;15337654;19;20019;-88
2023/09/07 07:07:38;;;;;;;3.90;2.00;;;;;;;15.97;100.00;99048.69;15320703;19;20011;-83
2023/09/07 07:13:06;;;;;;;4.78;1.90;;;;;;;16.09;100.00;99051.00;15320584;19;20472;-83
2023/09/07 07:18:31;;;;;;;4.65;2.00;;;;;;;16.24;100.00;99051.91;15312676;19;20038;-83
2023/09/07 07:24:02;;;;;;;2.45;1.80;;;;;;;16.40;100.00;99048.19;15316655;19;20468;-83
2023/09/07 07:29:29;;;;;;;2.67;1.77;;;;;;;16.64;100.00;99046.28;15323677;19;20014;-84
2023/09/07 07:34:55;;;;;;;2.10;1.70;;;;;;;16.84;100.00;99046.59;15314711;19;20014;-84
2023/09/07 07:40:21;;;;;;;2.35;1.70;;;;;;;17.01;100.00;99047.28;15316048;19;20037;-81
2023/09/07 07:45:49;;;;;;;5.90;1.83;;;;;;;17.23;100.00;99050.06;15317164;19;20010;-86
2023/09/07 07:51:17;;;;;;;3.00;1.80;;;;;;;17.50;100.00;99047.69;15308512;19;20026;-85
2023/09/07 07:56:41;;;;;;;2.85;1.70;;;;;;;17.70;100.00;99040.59;15298652;19;20074;-83
2023/09/07 08:02:10;;;;;;;6.13;1.65;;;;;;;17.97;100.00;99045.50;15298528;19;20305;-86
2023/09/07 08:07:36;;;;;;;2.15;1.52;;;;;;;18.27;100.00;99046.22;15299849;19;20027;-83
2023/09/07 08:13:02;;;;;;;3.50;1.40;;;;;;;18.47;100.00;99029.16;15297465;19;20011;-83
2023/09/07 08:18:32;;;;;;;3.72;1.67;;;;;;;18.76;100.00;99027.28;15301790;19;20086;-84
2023/09/07 08:24:05;;;;;;;1.45;1.35;;;;;;;19.00;100.00;99017.81;15294788;19;20014;-84
2023/09/07 08:29:32;;;;;;;3.58;1.40;;;;;;;19.29;100.00;99015.00;15308567;19;20014;-84
2023/09/07 08:35:00;;;;;;;2.92;1.40;;;;;;;19.59;100.00;99015.53;15305958;19;20022;-86
2023/09/07 08:40:27;;;;;;;2.20;1.50;;;;;;;19.84;100.00;99012.22;15309885;19;20045;-84
2023/09/07 08:45:59;;;;;;;6.63;1.60;;;;;;;20.05;100.00;99018.63;15294284;19;20021;-86
2023/09/07 08:51:27;;;;;;;4.45;1.40;;;;;;;20.31;100.00;99004.94;15302451;19;20014;-83
2023/09/07 08:56:56;;;;;;;1.45;1.30;;;;;;;20.62;100.00;99008.94;15300108;19;20018;-84
2023/09/07 09:02:22;;;;;;;1.63;1.20;;;;;;;20.98;100.00;99023.22;15300310;19;20010;-87
2023/09/07 09:07:50;;;;;;;1.60;1.25;;;;;;;21.21;100.00;99005.44;15291752;19;20481;-84
2023/09/07 09:13:16;;;;;;;1.88;1.20;;;;;;;21.51;100.00;99005.75;15297595;19;20014;-83
2023/09/07 09:18:41;;;;;;;2.20;1.20;;;;;;;21.79;100.00;98996.34;15292446;19;20021;-86
2023/09/07 09:24:20;;;;;;;1.48;1.20;;;;;;;22.10;100.00;98997.41;15295552;19;20047;-83
2023/09/07 09:29:46;;;;;;;1.35;1.13;;;;;;;22.33;100.00;99006.94;15299550;19;20015;-83
2023/09/07 09:35:12;;;;;;;2.17;1.20;;;;;;;22.55;100.00;98998.31;15305333;19;20082;-88
2023/09/07 09:40:40;;;;;;;2.40;1.02;;;;;;;22.84;100.00;98991.28;15301108;19;20022;-82
2023/09/07 09:46:06;;;;;;;1.20;1.10;;;;;;;23.07;100.00;98985.09;15299664;19;20011;-83
2023/09/07 09:51:34;;;;;;;1.02;0.90;;;;;;;23.30;100.00;98983.59;15301119;19;20014;-88
2023/09/07 09:57:05;;;;;;;1.92;0.90;;;;;;;23.61;100.00;98983.63;15300868;19;20039;-83
2023/09/07 10:02:30;;;;;;;2.53;1.10;;;;;;;23.82;100.00;98979.50;15303216;19;20042;-87
2023/09/07 10:07:58;;;;;;;2.75;1.00;;;;;;;24.03;100.00;98977.31;15301733;19;20014;-85
2023/09/07 10:13:35;;;;;;;1.40;0.90;;;;;;;24.27;100.00;98970.78;15302528;19;20014;-84
2023/09/07 10:18:59;;;;;;;1.42;0.90;;;;;;;24.47;100.00;98975.09;15303469;19;20041;-83
2023/09/07 10:24:38;;;;;;;1.45;1.00;;;;;;;24.68;100.00;98976.44;15293432;19;20447;-85
2023/09/07 10:30:12;;;;;;;1.35;0.88;;;;;;;24.88;96.22;98964.22;15295992;19;20023;-85
2023/09/07 10:35:37;;;;;;;1.75;1.10;;;;;;;24.98;94.81;98956.16;15289595;19;20013;-84
2023/09/07 10:41:04;;;;;;;2.00;0.90;;;;;;;25.12;88.41;98955.88;15290994;19;20557;-84
2023/09/07 10:46:32;;;;;;;2.83;1.00;;;;;;;25.26;94.02;98953.69;15283185;19;20077;-85
2023/09/07 10:51:57;;;;;;;2.10;0.90;;;;;;;25.38;88.65;98946.22;15295299;19;20015;-83
2023/09/07 10:57:22;;;;;;;1.05;0.95;;;;;;;25.58;83.31;98948.56;15315694;19;20010;-87
2023/09/07 11:02:50;;;;;;;1.67;0.98;;;;;;;25.81;78.20;98950.34;15332393;19;20045;-84
2023/09/07 11:08:16;;;;;;;1.33;1.05;;;;;;;25.97;80.97;98945.09;15276564;19;20363;-83
2023/09/07 11:13:41;;;;;;;1.90;1.10;;;;;;;26.09;79.04;98943.09;15281281;19;20373;-85
2023/09/07 11:19:12;;;;;;;0.85;0.82;;;;;;;26.20;79.95;98935.88;15276097;19;20018;-85
2023/09/07 11:24:44;;;;;;;6.78;1.02;;;;;;;26.36;81.06;98928.66;15275926;19;20018;-84
2023/09/07 11:30:13;;;;;;;1.00;0.90;;;;;;;26.56;77.14;98930.88;15279161;19;20096;-83
2023/09/07 11:35:40;;;;;;;1.30;1.02;;;;;;;26.67;75.71;98923.56;15279271;19;20022;-85
2023/09/07 11:41:05;;;;;;;1.77;1.05;;;;;;;26.80;75.52;98925.16;15280932;19;20019;-85
2023/09/07 11:46:30;;;;;;;4.35;1.10;;;;;;;26.95;73.83;98923.69;15279409;19;20017;-84
2023/09/07 11:51:58;;;;;;;4.20;1.17;;;;;;;27.07;69.05;98922.47;15280816;19;20220;-85
2023/09/07 11:57:22;;;;;;;3.92;1.00;;;;;;;27.20;70.49;98921.22;15274952;19;20018;-84
2023/09/07 12:02:47;;;;;;;1.25;1.00;;;;;;;27.38;68.20;98906.22;15279468;19;20011;-86
2023/09/07 12:08:18;;;;;;;3.67;0.80;;;;;;;27.58;63.02;98913.06;15321562;19;20031;-83
2023/09/07 12:13:47;;;;;;;1.55;1.00;;;;;;;27.77;64.04;98907.19;15300019;19;20025;-86
2023/09/07 12:19:12;;;;;;;1.98;0.90;;;;;;;27.94;65.76;98910.63;15298007;19;20010;-85
2023/09/07 12:24:46;;;;;;;1.27;0.90;;;;;;;28.18;61.39;98896.47;15320000;19;20015;-83
2023/09/07 12:30:30;;;;;;;0.80;0.80;;;;;;;28.43;62.56;98894.97;15354072;19;20021;-84
2023/09/07 12:35:55;;;;;;;1.35;0.80;;;;;;;28.63;61.79;98888.72;15291247;19;20014;-85
2023/09/07 12:41:24;;;;;;;1.90;0.93;;;;;;;28.88;59.00;98885.25;15293079;19;20019;-85
2023/09/07 12:46:49;;;;;;;3.20;0.80;;;;;;;29.16;61.21;98890.63;15286832;19;20009;-84
2023/09/07 12:52:14;;;;;;;1.48;0.90;;;;;;;29.48;58.05;98879.34;15289002;19;20014;-85
2023/09/07 12:57:43;;;;;;;0.80;0.80;;;;;;;29.61;57.86;98889.09;14776822;19;10000891;-86
2023/09/07 13:03:08;;;;;;;2.42;0.70;;;;;;;29.79;54.74;98879.41;15284016;19;20031;-87
2023/09/07 13:08:33;;;;;;;2.15;0.77;;;;;;;29.95;54.90;98876.63;15288150;19;20007;-86
2023/09/07 13:14:01;;;;;;;2.08;0.90;;;;;;;30.19;53.18;98859.38;15287500;19;20007;-86
2023/09/07 13:19:30;;;;;;;1.70;0.77;;;;;;;30.44;52.33;98861.28;15284950;19;20021;-86
2023/09/07 13:25:01;;;;;;;1.40;0.80;;;;;;;30.67;48.18;98854.28;15285795;19;20493;-86
2023/09/07 13:30:29;;;;;;;2.25;0.70;;;;;;;30.99;47.89;98853.00;15289564;19;20086;-85
2023/09/07 13:35:53;;;;;;;1.10;0.70;;;;;;;31.21;48.61;98851.84;15299247;19;20014;-87
2023/09/07 13:41:18;;;;;;;1.00;0.60;;;;;;;31.44;45.71;98847.50;15300119;19;20022;-84
2023/09/07 13:46:46;;;;;;;2.80;0.70;;;;;;;31.57;45.47;98840.47;15292932;19;20046;-87
2023/09/07 13:52:13;;;;;;;1.00;0.63;;;;;;;31.79;44.88;98844.78;15291681;19;20023;-86
2023/09/07 13:57:38;;;;;;;3.90;0.80;;;;;;;32.02;45.47;98837.56;15288986;19;20042;-84
2023/09/07 14:03:06;;;;;;;1.27;0.60;;;;;;;32.30;41.44;98839.84;15284801;19;20025;-85
2023/09/07 14:08:33;;;;;;;3.92;0.75;;;;;;;32.62;42.12;98833.63;15282146;19;20342;-84
2023/09/07 14:13:58;;;;;;;3.90;0.70;;;;;;;32.71;39.83;98833.78;15293063;19;20068;-85
2023/09/07 14:19:27;;;;;;;4.88;0.55;;;;;;;32.97;39.39;98834.31;15290720;19;20031;-84
2023/09/07 14:24:59;;;;;;;1.48;0.60;;;;;;;33.41;38.79;98829.53;15283536;19;20033;-84
2023/09/07 14:30:24;;;;;;;1.23;0.60;;;;;;;33.58;38.56;98831.78;15281236;19;20667;-84
2023/09/07 14:35:54;;;;;;;5.18;0.60;;;;;;;33.57;37.26;98832.09;15283580;19;20056;-84
2023/09/07 14:41:21;;;;;;;;;;;;;;;33.89;36.32;98830.44;15278993;19;20082;-85
2023/09/07 14:46:46;;;;;;;1.35;0.70;;;;;;;33.58;36.67;98836.50;15286737;19;19918;-85
2023/09/07 14:52:15;;;;;;;1.85;0.60;;;;;;;33.56;36.03;98833.22;15289528;19;20010;-83
2023/09/07 14:57:41;;;;;;;1.80;0.77;;;;;;;33.56;36.69;98827.63;15295250;19;20032;-81
2023/09/07 15:03:07;;;;;;;1.63;0.70;;;;;;;33.85;35.88;98818.19;15292129;19;20375;-82
2023/09/07 15:08:34;;;;;;;2.35;0.52;;;;;;;33.82;35.73;98814.03;15309422;19;20398;-84
2023/09/07 15:14:01;;;;;;;1.35;0.88;;;;;;;33.93;35.24;98823.94;15319774;19;20010;-84
2023/09/07 15:19:34;;;;;;;0.75;0.57;;;;;;;34.32;34.78;98818.22;15320022;19;20014;-86
2023/09/07 15:25:08;;;;;;;2.15;0.60;;;;;;;34.45;34.23;98802.59;15342564;19;20007;-84
2023/09/07 15:30:34;;;;;;;1.17;0.60;;;;;;;34.70;34.38;98804.84;15292788;19;20074;-87
2023/09/07 15:35:59;;;;;;;3.75;0.65;;;;;;;34.92;35.25;98800.50;15275113;19;20473;-84
2023/09/07 15:41:27;;;;;;;3.08;0.63;;;;;;;34.91;33.54;98798.81;15286001;19;20019;-86
2023/09/07 15:46:51;;;;;;;2.08;0.70;;;;;;;34.81;34.42;98791.44;15289342;19;20025;-83
2023/09/07 15:52:21;;;;;;;0.90;0.65;;;;;;;34.38;33.44;98802.97;15302948;19;20050;-83
2023/09/07 15:57:49;;;;;;;3.67;0.73;;;;;;;34.08;35.08;98800.47;15294260;19;20383;-84
2023/09/07 16:03:16;;;;;;;0.68;0.43;;;;;;;33.99;34.70;98798.69;15294569;19;20498;-80
2023/09/07 16:08:43;;;;;;;4.25;0.80;;;;;;;33.76;35.70;98793.75;15289125;19;20015;-81
2023/09/07 16:14:12;;;;;;;3.22;0.93;;;;;;;33.40;34.31;98791.56;15290203;19;20022;-85
2023/09/07 16:19:36;;;;;;;1.47;0.63;;;;;;;33.23;35.28;98785.66;15289963;19;20015;-85
2023/09/07 16:25:11;;;;;;;2.55;0.70;;;;;;;33.13;35.19;98792.22;15287721;19;20014;-84
2023/09/07 16:30:39;;;;;;;2.40;0.63;;;;;;;33.08;35.29;98779.19;15287372;19;20018;-83
2023/09/07 16:36:03;;;;;;;3.33;0.77;;;;;;;33.02;35.69;98774.78;15285687;19;20018;-86
2023/09/07 16:41:28;;;;;;;1.63;0.60;;;;;;;32.80;35.37;98770.66;15312982;19;20022;-83
2023/09/07 16:46:57;;;;;;;2.80;0.80;;;;;;;32.52;35.67;98769.59;15304057;19;20013;-84
2023/09/07 16:52:22;;;;;;;1.58;0.80;;;;;;;32.27;35.92;98772.41;15301875;19;20025;-82
2023/09/07 16:57:48;;;;;;;2.22;0.75;;;;;;;32.14;36.79;98773.09;15306558;19;20653;-81
2023/09/07 17:03:16;;;;;;;4.50;0.70;;;;;;;31.74;36.05;98787.16;15300470;19;20021;-83
2023/09/07 17:08:40;;;;;;;5.50;0.90;;;;;;;31.25;37.09;98786.09;15304601;19;20010;-81
2023/09/07 17:14:05;;;;;;;1.85;0.80;;;;;;;30.92;37.54;98784.91;15297273;19;20473;-84
2023/09/07 17:19:33;;;;;;;1.00;0.75;;;;;;;30.49;39.02;98786.19;15304963;19;20021;-86
2023/09/07 17:25:04;;;;;;;4.70;1.10;;;;;;;30.06;39.53;98775.50;15302736;19;20458;-87
2023/09/07 17:30:30;;;;;;;1.50;0.70;;;;;;;29.65;39.96;98768.03;15301239;19;20086;-87
2023/09/07 17:35:57;;;;;;;1.20;0.90;;;;;;;29.11;40.83;98776.88;15294963;19;20081;-84
2023/09/07 17:41:23;;;;;;;1.33;0.75;;;;;;;28.59;41.83;98783.09;15297065;19;20014;-84
2023/09/07 17:46:48;;;;;;;4.50;1.02;;;;;;;28.10;42.49;98786.16;15303862;19;20019;-81
2023/09/07 17:52:16;;;;;;;5.47;1.10;;;;;;;27.56;43.87;98787.13;15298369;19;20016;-79
2023/09/07 17:57:40;;;;;;;2.42;1.08;;;;;;;27.06;45.04;98787.22;15331554;19;20026;-79
2023/09/07 18:03:06;;;;;;;3.53;1.00;;;;;;;26.67;46.05;98793.66;15342721;19;20254;-80
2023/09/07 18:08:33;;;;;;;2.83;0.80;;;;;;;26.34;47.07;98791.91;15305884;19;20007;-79
2023/09/07 18:13:58;;;;;;;2.55;1.25;;;;;;;26.06;48.02;98802.78;15302700;19;20479;-80
2023/09/07 18:19:29;;;;;;;3.30;1.00;;;;;;;25.82;48.56;98814.03;15300899;19;20047;-81
2023/09/07 18:25:04;;;;;;;2.55;1.17;;;;;;;25.58;50.39;98812.53;15291881;19;20085;-81
2023/09/07 18:30:30;;;;;;;2.25;1.00;;;;;;;25.34;51.07;98807.97;15299307;19;20011;-80
2023/09/07 18:35:55;;;;;;;2.35;1.10;;;;;;;25.11;51.59;98821.88;15304393;19;20022;-80
2023/09/07 18:41:23;;;;;;;2.83;1.20;;;;;;;24.88;53.51;98821.72;15303008;19;20010;-82
2023/09/07 18:46:47;;;;;;;1.73;1.00;;;;;;;24.64;54.15;98815.44;15294397;19;20026;-82
2023/09/07 18:52:12;;;;;;;1.63;1.10;;;;;;;24.40;56.39;98820.19;15290244;19;20007;-82
2023/09/07 18:57:40;;;;;;;2.25;1.10;;;;;;;24.23;57.53;98829.16;15292448;19;20018;-81
2023/09/07 19:03:08;;;;;;;1.50;1.20;;;;;;;24.06;59.75;98819.94;15292453;19;20038;-81
2023/09/07 19:08:35;;;;;;;4.53;1.38;;;;;;;23.85;60.72;98824.94;15291892;19;20027;-79
2023/09/07 19:14:02;;;;;;;16.35;1.70;;;;;;;23.60;64.41;98823.25;15290474;19;20018;-79
2023/09/07 19:19:21;;;;;;;1.70;1.33;;;;;;;23.42;66.67;98821.41;15304816;19;20011;-80
2023/09/07 19:24:53;;;;;;;3.13;1.35;;;;;;;23.26;69.88;98822.09;15295831;19;20480;-83
2023/09/07 19:30:20;;;;;;;2.75;1.20;;;;;;;23.12;73.82;98824.16;15299762;19;20022;-83
2023/09/07 19:35:59;;;;;;;2.92;1.20;;;;;;;22.94;79.42;98826.72;15326037;19;20014;-82
2023/09/07 19:41:24;;;;;;;3.00;1.38;;;;;;;22.82;82.44;98827.75;15364296;19;20006;-84
2023/09/07 19:46:52;;;;;;;2.63;1.23;;;;;;;22.69;84.19;98834.28;15358568;19;20015;-82
2023/09/07 19:52:18;;;;;;;1.50;1.30;;;;;;;22.54;89.28;98820.91;15298090;19;20081;-83
2023/09/07 19:57:42;;;;;;;3.38;1.40;;;;;;;22.39;91.31;98827.63;15296884;19;20022;-83
2023/09/07 20:03:10;;;;;;;2.33;1.30;;;;;;;22.28;95.00;98823.72;15292128;19;20029;-83
2023/09/07 20:08:35;;;;;;;5.35;1.42;;;;;;;22.17;95.42;98828.03;15278496;19;20022;-83
2023/09/07 20:13:59;;;;;;;1.75;1.38;;;;;;;22.06;97.73;98839.75;15296741;19;20046;-83
2023/09/07 20:19:27;;;;;;;5.43;1.45;;;;;;;21.95;99.16;98832.28;15300194;19;20018;-81
2023/09/07 20:24:59;;;;;;;1.42;1.33;;;;;;;21.85;100.00;98828.16;15290263;19;20014;-82
2023/09/07 20:30:23;;;;;;;1.73;1.30;;;;;;;21.77;100.00;98820.22;15295442;19;20014;-82
2023/09/07 20:35:51;;;;;;;2.05;1.40;;;;;;;21.66;100.00;98815.47;15290196;19;20021;-85
2023/09/07 20:41:17;;;;;;;1.85;1.40;;;;;;;21.57;100.00;98816.78;15300393;19;20034;-84
2023/09/07 20:46:42;;;;;;;2.78;1.30;;;;;;;21.46;100.00;98819.16;15300038;19;20018;-82
2023/09/07 20:52:10;;;;;;;3.25;1.30;;;;;;;21.38;100.00;98823.03;15297377;19;20106;-82
2023/09/07 20:57:35;;;;;;;1.80;1.25;;;;;;;21.31;100.00;98819.47;15292766;19;20035;-81
2023/09/07 21:03:01;;;;;;;1.88;1.40;;;;;;;21.24;100.00;98811.31;15302300;19;20040;-83
2023/09/07 21:08:30;;;;;;;5.13;1.40;;;;;;;21.18;100.00;98812.19;15294064;19;20006;-80
2023/09/07 21:13:55;;;;;;;2.13;1.20;;;;;;;21.11;100.00;98819.59;15295046;19;20086;-82
2023/09/07 21:19:23;;;;;;;2.22;1.45;;;;;;;21.02;100.00;98820.94;15297219;19;20018;-82
2023/09/07 21:24:51;;;;;;;3.40;1.40;;;;;;;20.96;100.00;98816.34;15303500;19;20032;-80
2023/09/07 21:30:18;;;;;;;3.58;1.40;;;;;;;20.87;100.00;98813.88;15309544;19;20028;-80
2023/09/07 21:35:44;;;;;;;3.95;1.50;;;;;;;20.84;100.00;98810.69;15304375;19;20011;-81
2023/09/07 21:41:12;;;;;;;1.70;1.35;;;;;;;20.77;100.00;98824.44;15297927;19;20495;-82
2023/09/07 21:46:37;;;;;;;3.80;1.40;;;;;;;20.69;100.00;98816.44;15301928;19;20052;-83
2023/09/07 21:52:03;;;;;;;2.10;1.40;;;;;;;20.65;100.00;98821.50;15298212;19;20038;-83
2023/09/07 21:57:30;;;;;;;3.53;1.38;;;;;;;20.59;100.00;98817.75;15292787;19;20010;-83
2023/09/07 22:02:56;;;;;;;1.73;1.30;;;;;;;20.55;100.00;98821.97;15291860;19;20499;-82
2023/09/07 22:08:22;;;;;;;1.33;1.20;;;;;;;20.44;100.00;98814.44;15294369;19;20046;-83
2023/09/07 22:13:49;;;;;;;1.77;1.40;;;;;;;20.39;100.00;98822.47;15284343;19;20375;-81
2023/09/07 22:19:15;;;;;;;2.70;1.38;;;;;;;20.31;100.00;98820.81;15292695;19;20010;-84
2023/09/07 22:24:39;;;;;;;2.65;1.30;;;;;;;20.26;100.00;98824.19;15285051;19;20036;-83
2023/09/07 22:30:08;;;;;;;1.63;1.35;;;;;;;20.19;100.00;98822.50;15287080;19;20774;-80
2023/09/07 22:35:33;;;;;;;2.22;1.40;;;;;;;20.12;100.00;98817.06;15280710;19;20022;-81
2023/09/07 22:40:59;;;;;;;2.75;1.38;;;;;;;20.05;100.00;98813.50;15285625;19;20793;-81
2023/09/07 22:46:26;;;;;;;3.33;1.20;;;;;;;20.02;100.00;98818.34;15274581;19;20478;-80
2023/09/07 22:51:51;;;;;;;4.50;1.33;;;;;;;19.99;100.00;98821.50;15280207;19;20018;-80
2023/09/07 22:57:16;;;;;;;1.83;1.15;;;;;;;19.95;100.00;98822.97;15279893;19;20019;-82
2023/09/07 23:02:44;;;;;;;1.65;1.40;;;;;;;19.91;100.00;98832.66;15286662;19;20018;-81
2023/09/07 23:08:16;;;;;;;3.00;1.40;;;;;;;19.84;100.00;98820.84;15289056;19;20014;-82
2023/09/07 23:13:41;;;;;;;2.20;1.50;;;;;;;19.75;100.00;98822.13;15286337;19;20106;-84
2023/09/07 23:19:17;;;;;;;4.60;1.50;;;;;;;19.68;100.00;98820.25;15294320;19;20031;-54
2023/09/07 23:24:42;;;;;;;4.13;1.20;;;;;;;19.61;100.00;98832.22;15307501;19;20011;-52
2023/09/07 23:30:09;;;;;;;1.35;1.25;;;;;;;19.52;100.00;98829.69;15307784;19;20011;-53
2023/09/07 23:35:38;;;;;;;2.72;1.30;;;;;;;19.48;100.00;98824.84;15308372;19;20040;-55
2023/09/07 23:41:02;;;;;;;2.03;1.30;;;;;;;19.42;100.00;98822.97;15303546;19;20034;-53
2023/09/07 23:46:27;;;;;;;3.03;1.30;;;;;;;19.35;100.00;98823.78;15305155;19;20023;-49
2023/09/07 23:51:54;;;;;;;2.35;1.35;;;;;;;19.25;100.00;98823.34;15301303;19;20018;-53
2023/09/07 23:57:19;;;;;;;2.25;1.30;;;;;;;19.09;100.00;98817.25;15305203;19;20584;-54
